createdAt,value
2022-12-24T00:00:07.217Z,100.00
2022-12-24T00:03:13.817Z,100.00
2022-12-24T00:06:22.006Z,100.00
2022-12-24T00:09:28.143Z,100.00
2022-12-24T00:12:36.005Z,100.00
2022-12-24T00:15:42.441Z,100.00
2022-12-24T00:18:49.083Z,100.00
2022-12-24T00:21:54.996Z,100.00
2022-12-24T00:25:01.157Z,100.00
2022-12-24T00:28:08.644Z,100.00
2022-12-24T00:31:17.583Z,100.00
2022-12-24T00:34:24.681Z,100.00
2022-12-24T00:37:31.122Z,100.00
2022-12-24T00:40:37.532Z,100.00
2022-12-24T00:43:45.267Z,100.00
2022-12-24T00:46:51.427Z,100.00
2022-12-24T00:49:57.933Z,100.00
2022-12-24T00:53:04.306Z,100.00
2022-12-24T00:56:11.468Z,100.00
2022-12-24T00:59:19.386Z,100.00
2022-12-24T01:02:26.221Z,100.00
2022-12-24T01:05:32.598Z,100.00
2022-12-24T01:08:39.849Z,100.00
2022-12-24T01:11:46.460Z,100.00
2022-12-24T01:14:54.255Z,100.00
2022-12-24T01:18:00.549Z,100.00
2022-12-24T01:21:07.295Z,100.00
2022-12-24T01:24:16.410Z,100.00
2022-12-24T01:27:23.071Z,100.00
2022-12-24T01:30:31.230Z,100.00
2022-12-24T01:33:37.793Z,100.00
2022-12-24T01:36:44.235Z,100.00
2022-12-24T01:39:50.419Z,100.00
2022-12-24T01:43:10.346Z,100.00
2022-12-24T01:46:21.824Z,100.00
2022-12-24T01:49:28.344Z,100.00
2022-12-24T01:52:36.872Z,100.00
2022-12-24T01:55:46.103Z,100.00
2022-12-24T01:58:57.250Z,100.00
2022-12-24T02:02:05.351Z,100.00
2022-12-24T02:05:17.160Z,100.00
2022-12-24T02:08:23.756Z,100.00
2022-12-24T02:11:31.450Z,100.00
2022-12-24T02:14:38.602Z,100.00
2022-12-24T02:17:55.624Z,100.00
2022-12-24T02:21:36.931Z,100.00
2022-12-24T02:25:30.826Z,100.00
2022-12-24T02:28:55.954Z,100.00
2022-12-24T02:32:07.873Z,100.00
2022-12-24T02:35:18.833Z,100.00
2022-12-24T02:38:29.923Z,100.00
2022-12-24T02:41:52.772Z,100.00
2022-12-24T02:45:04.504Z,100.00
2022-12-24T02:48:13.613Z,100.00
2022-12-24T02:51:24.499Z,100.00
2022-12-24T02:54:31.295Z,100.00
2022-12-24T02:57:51.517Z,100.00
2022-12-24T03:01:16.781Z,100.00
2022-12-24T03:04:43.525Z,100.00
2022-12-24T03:07:58.419Z,100.00
2022-12-24T03:11:11.025Z,100.00
2022-12-24T03:14:18.556Z,100.00
2022-12-24T03:17:25.036Z,100.00
2022-12-24T03:20:38.878Z,100.00
2022-12-24T03:23:45.722Z,100.00
2022-12-24T03:26:54.064Z,100.00
2022-12-24T03:30:00.185Z,100.00
2022-12-24T03:33:06.581Z,100.00
2022-12-24T03:36:15.271Z,100.00
2022-12-24T03:39:21.451Z,100.00
2022-12-24T03:42:27.962Z,100.00
2022-12-24T03:45:34.736Z,100.00
2022-12-24T03:48:40.841Z,100.00
2022-12-24T03:51:48.381Z,100.00
2022-12-24T03:54:54.703Z,100.00
2022-12-24T03:58:00.722Z,100.00
2022-12-24T04:01:07.448Z,100.00
2022-12-24T04:04:13.669Z,100.00
2022-12-24T04:07:21.532Z,100.00
2022-12-24T04:10:28.060Z,100.00
2022-12-24T04:13:34.312Z,100.00
2022-12-24T04:16:40.601Z,100.00
2022-12-24T04:19:46.948Z,100.00
2022-12-24T04:22:55.811Z,100.00
2022-12-24T04:26:02.969Z,100.00
2022-12-24T04:29:09.420Z,100.00
2022-12-24T04:32:15.809Z,100.00
2022-12-24T04:35:22.147Z,100.00
2022-12-24T04:38:30.561Z,100.00
2022-12-24T04:41:37.347Z,100.00
2022-12-24T04:44:43.911Z,100.00
2022-12-24T04:47:50.207Z,100.00
2022-12-24T04:50:56.658Z,100.00
2022-12-24T04:54:04.730Z,100.00
2022-12-24T04:57:11.258Z,100.00
2022-12-24T05:00:17.822Z,100.00
2022-12-24T05:03:24.355Z,100.00
2022-12-24T05:06:32.914Z,100.00
2022-12-24T05:09:40.509Z,100.00
2022-12-24T05:12:46.537Z,100.00
2022-12-24T05:15:52.836Z,100.00
2022-12-24T05:18:59.153Z,100.00
2022-12-24T05:22:23.181Z,100.00
2022-12-24T05:25:55.147Z,100.00
2022-12-24T05:29:03.493Z,100.00
2022-12-24T05:32:09.859Z,100.00
2022-12-24T05:35:16.513Z,100.00
2022-12-24T05:38:23.283Z,100.00
2022-12-24T05:41:31.867Z,100.00
2022-12-24T05:44:38.641Z,100.00
2022-12-24T05:47:45.058Z,100.00
2022-12-24T05:50:51.086Z,100.00
2022-12-24T05:53:57.439Z,100.00
2022-12-24T05:57:04.892Z,100.00
2022-12-24T06:00:12.285Z,100.00
2022-12-24T06:03:18.646Z,100.00
2022-12-24T06:06:26.791Z,100.00
2022-12-24T06:09:33.105Z,100.00
2022-12-24T06:12:40.645Z,100.00
2022-12-24T06:15:46.951Z,100.00
2022-12-24T06:18:53.148Z,100.00
2022-12-24T06:21:59.374Z,100.00
2022-12-24T06:25:06.358Z,100.00
2022-12-24T06:28:14.104Z,100.00
2022-12-24T06:31:22.861Z,100.00
2022-12-24T06:34:29.476Z,100.00
2022-12-24T06:37:35.672Z,100.00
2022-12-24T06:40:43.253Z,100.00
2022-12-24T06:43:53.747Z,100.00
2022-12-24T06:46:59.811Z,100.00
2022-12-24T06:50:07.001Z,100.00
2022-12-24T06:53:13.308Z,100.00
2022-12-24T06:56:21.353Z,100.00
2022-12-24T06:59:29.151Z,100.00
2022-12-24T07:02:35.811Z,100.00
2022-12-24T07:05:42.655Z,100.00
2022-12-24T07:08:49.048Z,100.00
2022-12-24T07:11:55.501Z,100.00
2022-12-24T07:15:03.418Z,100.00
2022-12-24T07:18:09.729Z,100.00
2022-12-24T07:21:16.011Z,100.00
2022-12-24T07:24:22.574Z,100.00
2022-12-24T07:27:28.895Z,100.00
2022-12-24T07:30:36.372Z,100.00
2022-12-24T07:33:42.765Z,100.00
2022-12-24T07:36:49.027Z,100.00
2022-12-24T07:39:55.089Z,100.00
2022-12-24T07:43:01.421Z,100.00
2022-12-24T07:46:08.971Z,100.00
2022-12-24T07:49:15.306Z,100.00
2022-12-24T07:52:21.487Z,100.00
2022-12-24T07:55:27.650Z,100.00
2022-12-24T07:58:33.827Z,100.00
2022-12-24T08:01:41.910Z,100.00
2022-12-24T08:04:48.614Z,100.00
2022-12-24T08:07:55.064Z,100.00
2022-12-24T08:11:03.717Z,100.00
2022-12-24T08:14:10.102Z,100.00
2022-12-24T08:17:18.001Z,100.00
2022-12-24T08:20:24.084Z,100.00
2022-12-24T08:23:30.635Z,100.00
2022-12-24T08:26:36.988Z,100.00
2022-12-24T08:29:43.521Z,100.00
2022-12-24T08:32:51.404Z,100.00
2022-12-24T08:35:57.779Z,100.00
2022-12-24T08:39:04.415Z,100.00
2022-12-24T08:42:10.976Z,100.00
2022-12-24T08:45:17.609Z,100.00
2022-12-24T08:48:25.493Z,100.00
2022-12-24T08:51:31.941Z,100.00
2022-12-24T08:54:38.106Z,100.00
2022-12-24T08:57:44.310Z,100.00
2022-12-24T09:00:50.715Z,100.00
2022-12-24T09:03:58.235Z,100.00
2022-12-24T09:07:04.708Z,100.00
2022-12-24T09:10:12.406Z,100.00
2022-12-24T09:13:18.680Z,100.00
2022-12-24T09:16:25.021Z,100.00
2022-12-24T09:19:32.531Z,100.00
2022-12-24T09:22:40.754Z,100.00
2022-12-24T09:25:47.161Z,100.00
2022-12-24T09:28:54.550Z,100.00
2022-12-24T09:32:01.420Z,100.00
2022-12-24T09:35:09.623Z,100.00
2022-12-24T09:38:15.737Z,100.00
2022-12-24T09:41:39.828Z,100.00
2022-12-24T09:44:50.908Z,100.00
2022-12-24T09:48:01.351Z,100.00
2022-12-24T09:51:11.792Z,100.00
2022-12-24T09:54:23.220Z,100.00
2022-12-24T09:57:33.806Z,100.00
2022-12-24T10:00:44.528Z,100.00
2022-12-24T10:03:54.020Z,100.00
2022-12-24T10:07:08.722Z,100.00
2022-12-24T10:10:25.523Z,100.00
2022-12-24T10:13:44.135Z,100.00
2022-12-24T10:16:59.662Z,100.00
2022-12-24T10:20:25.172Z,100.00
2022-12-24T10:23:39.960Z,100.00
2022-12-24T10:26:47.852Z,100.00
2022-12-24T10:30:00.215Z,100.00
2022-12-24T10:33:16.720Z,100.00
2022-12-24T10:36:28.157Z,100.00
2022-12-24T10:39:35.723Z,100.00
2022-12-24T10:42:50.663Z,100.00
2022-12-24T10:45:59.601Z,100.00
2022-12-24T10:49:08.694Z,100.00
2022-12-24T10:52:19.049Z,100.00
2022-12-24T10:55:28.324Z,100.00
2022-12-24T10:58:35.647Z,100.00
2022-12-24T11:01:47.185Z,100.00
2022-12-24T11:04:54.330Z,100.00
2022-12-24T11:08:04.776Z,100.00
2022-12-24T11:11:14.995Z,100.00
2022-12-24T11:14:22.727Z,98.97
2022-12-24T11:17:29.521Z,99.01
2022-12-24T11:20:37.022Z,96.38
2022-12-24T11:23:51.798Z,96.30
2022-12-24T11:27:30.579Z,94.03
2022-12-24T11:30:37.090Z,94.03
2022-12-24T11:33:49.182Z,93.75
2022-12-24T11:36:58.505Z,90.04
2022-12-24T11:40:05.768Z,88.33
2022-12-24T11:43:18.017Z,85.31
2022-12-24T11:46:38.713Z,82.62
2022-12-24T11:49:45.138Z,82.85
2022-12-24T11:52:56.519Z,84.64
2022-12-24T11:56:08.107Z,87.06
2022-12-24T11:59:21.932Z,86.11
2022-12-24T12:02:33.286Z,85.97
2022-12-24T12:05:40.539Z,90.64
2022-12-24T12:08:48.956Z,89.94
2022-12-24T12:11:59.763Z,89.41
2022-12-24T12:15:14.343Z,88.86
2022-12-24T12:18:25.273Z,88.12
2022-12-24T12:21:37.021Z,87.32
2022-12-24T12:24:51.895Z,89.19
2022-12-24T12:28:01.518Z,87.37
2022-12-24T12:31:18.623Z,87.77
2022-12-24T12:34:30.919Z,88.54
2022-12-24T12:37:42.287Z,85.90
2022-12-24T12:41:10.523Z,86.93
2022-12-24T12:44:32.764Z,84.35
2022-12-24T12:48:09.100Z,86.89
2022-12-24T12:51:23.304Z,89.19
2022-12-24T12:54:42.529Z,90.13
2022-12-24T12:57:51.164Z,87.71
2022-12-24T13:01:03.265Z,90.67
2022-12-24T13:04:44.900Z,90.61
2022-12-24T13:08:20.745Z,89.38
2022-12-24T13:11:52.961Z,91.46
2022-12-24T13:15:13.122Z,92.06
2022-12-24T13:18:45.492Z,93.21
2022-12-24T13:21:57.016Z,93.12
2022-12-24T13:25:03.400Z,92.94
2022-12-24T13:28:35.819Z,94.29
2022-12-24T13:31:42.230Z,92.40
2022-12-24T13:34:50.981Z,91.85
2022-12-24T13:38:45.380Z,92.02
2022-12-24T13:41:53.329Z,93.29
2022-12-24T13:45:34.690Z,95.01
2022-12-24T13:48:41.495Z,95.39
2022-12-24T13:51:48.399Z,95.05
2022-12-24T13:55:08.122Z,98.48
2022-12-24T13:58:22.039Z,100.00
2022-12-24T14:01:37.219Z,98.93
2022-12-24T14:04:43.581Z,100.00
2022-12-24T14:07:51.494Z,99.96
2022-12-24T14:11:17.861Z,100.00
2022-12-24T14:14:30.211Z,99.16
2022-12-24T14:17:38.420Z,100.00
2022-12-24T14:20:45.388Z,100.00
2022-12-24T14:23:56.306Z,100.00
2022-12-24T14:27:18.190Z,100.00
2022-12-24T14:30:25.782Z,100.00
2022-12-24T14:33:32.359Z,100.00
2022-12-24T14:36:39.479Z,100.00
2022-12-24T14:39:57.020Z,100.00
2022-12-24T14:43:13.359Z,100.00
2022-12-24T14:46:28.980Z,100.00
2022-12-24T14:49:47.329Z,100.00
2022-12-24T14:53:09.117Z,100.00
2022-12-24T14:56:20.334Z,100.00
2022-12-24T14:59:28.982Z,100.00
2022-12-24T15:02:53.311Z,100.00
2022-12-24T15:06:02.306Z,100.00
2022-12-24T15:09:16.063Z,100.00
2022-12-24T15:12:23.458Z,100.00
2022-12-24T15:15:31.630Z,100.00
2022-12-24T15:18:47.758Z,100.00
2022-12-24T15:21:55.151Z,100.00
2022-12-24T15:25:01.424Z,100.00
2022-12-24T15:28:18.688Z,100.00
2022-12-24T15:31:27.875Z,100.00
2022-12-24T15:34:38.576Z,100.00
2022-12-24T15:37:45.077Z,100.00
2022-12-24T15:40:51.302Z,100.00
2022-12-24T15:44:04.308Z,100.00
2022-12-24T15:47:17.731Z,100.00
2022-12-24T15:50:30.789Z,100.00
2022-12-24T15:53:43.777Z,100.00
2022-12-24T15:56:50.215Z,100.00
2022-12-24T15:59:58.206Z,100.00
2022-12-24T16:03:20.441Z,100.00
2022-12-24T16:06:27.788Z,100.00
2022-12-24T16:09:44.210Z,100.00
2022-12-24T16:12:50.225Z,100.00
2022-12-24T16:16:00.892Z,100.00
2022-12-24T16:19:09.322Z,100.00
2022-12-24T16:22:36.334Z,100.00
2022-12-24T16:25:42.553Z,100.00
2022-12-24T16:28:48.821Z,100.00
2022-12-24T16:31:56.965Z,100.00
2022-12-24T16:35:08.045Z,100.00
2022-12-24T16:38:14.961Z,100.00
2022-12-24T16:41:21.183Z,100.00
2022-12-24T16:44:26.731Z,100.00
2022-12-24T16:47:41.955Z,100.00
2022-12-24T16:50:51.102Z,100.00
2022-12-24T16:53:57.403Z,100.00
2022-12-24T16:57:03.986Z,100.00
2022-12-24T17:00:18.433Z,100.00
2022-12-24T17:03:24.950Z,100.00
2022-12-24T17:06:32.640Z,100.00
2022-12-24T17:09:39.065Z,100.00
2022-12-24T17:12:45.204Z,100.00
2022-12-24T17:15:51.239Z,100.00
2022-12-24T17:18:57.699Z,100.00
2022-12-24T17:22:05.364Z,100.00
2022-12-24T17:25:14.381Z,100.00
2022-12-24T17:28:20.930Z,100.00
2022-12-24T17:31:27.300Z,100.00
2022-12-24T17:34:33.623Z,100.00
2022-12-24T17:37:41.610Z,100.00
2022-12-24T17:40:48.138Z,100.00
2022-12-24T17:43:54.443Z,100.00
2022-12-24T17:47:02.148Z,100.00
2022-12-24T17:50:09.776Z,100.00
2022-12-24T17:53:17.769Z,100.00
2022-12-24T17:56:24.082Z,100.00
2022-12-24T17:59:30.820Z,100.00
2022-12-24T18:02:37.844Z,100.00
2022-12-24T18:05:44.411Z,100.00
2022-12-24T18:08:52.530Z,100.00
2022-12-24T18:11:58.758Z,100.00
2022-12-24T18:15:05.631Z,100.00
2022-12-24T18:18:12.204Z,100.00
2022-12-24T18:21:20.709Z,100.00
2022-12-24T18:24:28.808Z,100.00
2022-12-24T18:27:36.100Z,100.00
2022-12-24T18:30:42.486Z,100.00
2022-12-24T18:33:50.566Z,100.00
2022-12-24T18:36:57.066Z,100.00
2022-12-24T18:40:05.006Z,100.00
2022-12-24T18:43:11.389Z,100.00
2022-12-24T18:46:19.736Z,100.00
2022-12-24T18:49:26.000Z,100.00
2022-12-24T18:52:32.581Z,100.00
2022-12-24T18:55:40.241Z,100.00
2022-12-24T18:58:46.613Z,100.00
2022-12-24T19:01:53.454Z,100.00
2022-12-24T19:04:59.999Z,100.00
2022-12-24T19:08:22.200Z,100.00
2022-12-24T19:11:36.293Z,100.00
2022-12-24T19:14:42.370Z,100.00
2022-12-24T19:17:48.939Z,100.00
2022-12-24T19:20:54.948Z,100.00
2022-12-24T19:24:01.704Z,100.00
2022-12-24T19:27:09.216Z,100.00
2022-12-24T19:30:15.772Z,100.00
2022-12-24T19:33:22.144Z,100.00
2022-12-24T19:36:30.521Z,100.00
2022-12-24T19:39:37.197Z,100.00
2022-12-24T19:42:45.562Z,100.00
2022-12-24T19:45:58.499Z,100.00
2022-12-24T19:49:07.916Z,100.00
2022-12-24T19:52:14.342Z,100.00
2022-12-24T19:55:20.757Z,100.00
2022-12-24T19:58:29.249Z,100.00
2022-12-24T20:01:36.579Z,100.00
2022-12-24T20:04:43.219Z,100.00
2022-12-24T20:07:49.769Z,100.00
2022-12-24T20:10:56.685Z,100.00
2022-12-24T20:14:05.909Z,100.00
2022-12-24T20:17:12.378Z,100.00
2022-12-24T20:20:19.301Z,100.00
2022-12-24T20:23:25.750Z,100.00
2022-12-24T20:26:32.238Z,100.00
2022-12-24T20:29:40.056Z,100.00
2022-12-24T20:32:46.164Z,100.00
2022-12-24T20:35:52.748Z,100.00
2022-12-24T20:38:59.162Z,100.00
2022-12-24T20:42:05.605Z,100.00
2022-12-24T20:45:13.352Z,100.00
2022-12-24T20:48:20.449Z,100.00
2022-12-24T20:51:28.840Z,100.00
2022-12-24T20:54:35.072Z,100.00
2022-12-24T20:57:41.287Z,100.00
2022-12-24T21:00:49.571Z,100.00
2022-12-24T21:03:57.618Z,100.00
2022-12-24T21:07:03.892Z,100.00
2022-12-24T21:10:11.857Z,100.00
2022-12-24T21:13:18.825Z,100.00
2022-12-24T21:16:26.770Z,100.00
2022-12-24T21:19:33.214Z,100.00
2022-12-24T21:22:39.872Z,100.00
2022-12-24T21:25:46.521Z,100.00
2022-12-24T21:28:53.398Z,100.00
2022-12-24T21:32:01.372Z,100.00
2022-12-24T21:35:08.348Z,100.00
2022-12-24T21:38:14.837Z,100.00
2022-12-24T21:41:23.697Z,100.00
2022-12-24T21:44:30.075Z,100.00
2022-12-24T21:47:38.408Z,100.00
2022-12-24T21:50:55.885Z,100.00
2022-12-24T21:54:19.823Z,100.00
2022-12-24T21:57:43.664Z,100.00
2022-12-24T22:00:50.247Z,100.00
2022-12-24T22:03:58.033Z,100.00
2022-12-24T22:07:23.389Z,100.00
2022-12-24T22:10:47.043Z,100.00
2022-12-24T22:13:54.331Z,100.00
2022-12-24T22:17:01.170Z,100.00
2022-12-24T22:20:10.750Z,100.00
2022-12-24T22:23:17.574Z,100.00
2022-12-24T22:26:24.102Z,100.00
2022-12-24T22:29:30.287Z,100.00
2022-12-24T22:32:36.971Z,100.00
2022-12-24T22:35:44.682Z,100.00
2022-12-24T22:38:51.234Z,100.00
2022-12-24T22:41:58.392Z,100.00
2022-12-24T22:45:06.235Z,100.00
2022-12-24T22:48:12.697Z,100.00
2022-12-24T22:51:22.831Z,100.00
2022-12-24T22:54:29.363Z,100.00
2022-12-24T22:57:35.972Z,100.00
2022-12-24T23:00:44.384Z,100.00
2022-12-24T23:03:50.988Z,100.00
2022-12-24T23:06:58.589Z,100.00
2022-12-24T23:10:05.340Z,100.00
2022-12-24T23:13:31.135Z,100.00
2022-12-24T23:16:38.041Z,100.00
2022-12-24T23:19:44.820Z,100.00
2022-12-24T23:22:52.329Z,100.00
2022-12-24T23:26:03.805Z,100.00
2022-12-24T23:29:10.416Z,100.00
2022-12-24T23:32:16.818Z,100.00
2022-12-24T23:35:23.202Z,100.00
2022-12-24T23:38:31.232Z,100.00
2022-12-24T23:41:37.514Z,100.00
2022-12-24T23:44:43.889Z,100.00
2022-12-24T23:47:49.847Z,100.00
2022-12-24T23:51:05.532Z,100.00
2022-12-24T23:54:13.512Z,100.00
2022-12-24T23:57:19.883Z,100.00
